Time;durP1;ratioP1;P1;durP2;ratioP2;P2;SDS_P1;SDS_P2;PMS_P1;PMS_P2;Temp;Humidity;BMP_temperature;BMP_pressure;BME280_temperature;BME280_humidity;BME280_pressure;Samples;Min_cycle;Max_cycle;Signal;HPM_P1;HPM_P2
2024/02/13 00:00:12;;;;;;;9.18;4.35;;;14.90;99.90;;;;;;5047672;28;19917;-79
2024/02/13 00:02:38;;;;;;;9.38;4.55;;;14.90;99.90;;;;;;5051234;28;20029;-77
2024/02/13 00:05:07;;;;;;;9.13;4.38;;;14.90;99.90;;;;;;5052314;28;20048;-78
2024/02/13 00:07:36;;;;;;;9.65;3.97;;;14.90;99.90;;;;;;5050489;28;20036;-78
2024/02/13 00:10:03;;;;;;;8.80;4.35;;;14.80;99.90;;;;;;5042585;28;20029;-78
2024/02/13 00:12:28;;;;;;;9.55;4.40;;;14.80;99.90;;;;;;5043559;28;20029;-77
2024/02/13 00:14:55;;;;;;;8.30;3.60;;;14.80;99.90;;;;;;5045715;28;20030;-76
2024/02/13 00:17:23;;;;;;;7.32;3.88;;;14.80;99.90;;;;;;5049552;28;20025;-75
2024/02/13 00:19:50;;;;;;;6.55;3.47;;;14.80;99.90;;;;;;5042907;28;20048;-77
2024/02/13 00:22:15;;;;;;;;;;;14.80;99.90;;;;;;5035603;28;20034;-79
2024/02/13 00:24:43;;;;;;;7.70;3.73;;;14.80;99.90;;;;;;5044934;28;20004;-75
2024/02/13 00:27:09;;;;;;;6.13;3.70;;;14.80;99.90;;;;;;5051596;28;20040;-78
2024/02/13 00:29:35;;;;;;;7.03;3.37;;;14.80;99.90;;;;;;5048082;28;20441;-76
2024/02/13 00:32:01;;;;;;;8.00;3.93;;;14.70;99.90;;;;;;5031761;28;20064;-76
2024/02/13 00:34:27;;;;;;;6.33;3.40;;;14.70;99.90;;;;;;5046161;28;20033;-77
2024/02/13 00:36:52;;;;;;;8.68;3.63;;;14.70;99.90;;;;;;5047658;28;20071;-77
2024/02/13 00:39:18;;;;;;;8.90;3.50;;;14.70;99.90;;;;;;5042535;28;20434;-77
2024/02/13 00:41:44;;;;;;;7.70;3.20;;;14.70;99.90;;;;;;5045719;28;20044;-76
2024/02/13 00:44:11;;;;;;;9.38;3.88;;;14.70;99.90;;;;;;5051157;28;20497;-76
2024/02/13 00:46:37;;;;;;;;;;;14.70;99.90;;;;;;5047497;28;20025;-76
2024/02/13 00:49:03;;;;;;;6.80;3.45;;;14.70;99.90;;;;;;5050070;28;19962;-76
2024/02/13 00:51:29;;;;;;;9.18;3.97;;;14.70;99.90;;;;;;5050453;28;20059;-81
2024/02/13 00:53:56;;;;;;;8.43;3.53;;;14.70;99.90;;;;;;5044218;28;20459;-77
2024/02/13 00:56:22;;;;;;;5.57;3.40;;;14.60;99.90;;;;;;5050783;28;20270;-78
2024/02/13 00:58:47;;;;;;;7.32;3.42;;;14.60;99.90;;;;;;5044396;28;20112;-79
2024/02/13 01:01:13;;;;;;;7.77;3.80;;;14.60;99.90;;;;;;5050975;28;20111;-77
2024/02/13 01:03:40;;;;;;;6.68;3.30;;;14.60;99.90;;;;;;5041830;28;20028;-75
2024/02/13 01:06:07;;;;;;;5.28;2.60;;;14.60;99.90;;;;;;5050659;28;20132;-78
2024/02/13 01:08:34;;;;;;;6.32;3.53;;;14.60;99.90;;;;;;5050273;28;20033;-79
2024/02/13 01:11:00;;;;;;;5.80;2.70;;;14.60;99.90;;;;;;5046973;28;20033;-77
2024/02/13 01:13:26;;;;;;;4.20;2.27;;;14.60;99.90;;;;;;5039695;28;20039;-76
2024/02/13 01:15:52;;;;;;;7.40;3.65;;;14.60;99.90;;;;;;5045033;28;20094;-76
2024/02/13 01:18:18;;;;;;;8.13;3.03;;;14.60;99.90;;;;;;5048175;28;20132;-79
2024/02/13 01:20:43;;;;;;;4.37;2.60;;;14.60;99.90;;;;;;5044131;28;20455;-74
2024/02/13 01:23:12;;;;;;;5.80;2.90;;;14.50;99.90;;;;;;5033203;28;20686;-77
2024/02/13 01:25:39;;;;;;;7.47;2.95;;;14.60;99.90;;;;;;5045650;28;20033;-75
2024/02/13 01:28:07;;;;;;;;;;;14.50;99.90;;;;;;5042037;28;20085;-80
2024/02/13 01:30:34;;;;;;;4.22;2.55;;;14.50;99.90;;;;;;5034183;28;19919;-75
2024/02/13 01:32:59;;;;;;;;;;;14.50;99.90;;;;;;5050248;28;20036;-76
2024/02/13 01:35:25;;;;;;;5.93;2.83;;;14.50;99.90;;;;;;5040950;28;19917;-79
2024/02/13 01:37:51;;;;;;;7.05;3.00;;;14.50;99.90;;;;;;5041925;28;20030;-77
2024/02/13 01:40:17;;;;;;;5.30;3.03;;;14.50;99.90;;;;;;5047228;28;20037;-77
2024/02/13 01:42:48;;;;;;;5.63;2.87;;;14.50;99.90;;;;;;5049403;28;20107;-76
2024/02/13 01:45:14;;;;;;;6.95;2.40;;;14.50;99.90;;;;;;5050352;28;20127;-77
2024/02/13 01:47:42;;;;;;;5.73;3.07;;;14.50;99.90;;;;;;5047754;28;20112;-77
2024/02/13 01:50:20;;;;;;;4.95;2.65;;;14.50;99.90;;;;;;5042015;28;20128;-76
2024/02/13 01:52:48;;;;;;;6.07;2.83;;;14.40;99.90;;;;;;5050997;28;20032;-79
2024/02/13 01:55:16;;;;;;;7.25;3.28;;;14.40;99.90;;;;;;5042217;28;20071;-78
2024/02/13 01:57:43;;;;;;;4.63;2.42;;;14.40;99.90;;;;;;5041520;28;20039;-78
2024/02/13 02:00:13;;;;;;;5.72;2.80;;;14.40;99.90;;;;;;5047239;28;20476;-77
2024/02/13 02:02:45;;;;;;;4.88;2.78;;;14.40;99.90;;;;;;5040439;28;20467;-80
2024/02/13 02:05:13;;;;;;;5.30;3.03;;;14.40;99.90;;;;;;5048031;28;20048;-81
2024/02/13 02:07:43;;;;;;;3.85;2.45;;;14.40;99.90;;;;;;5046502;28;20020;-76
2024/02/13 02:10:09;;;;;;;5.70;2.60;;;14.40;99.90;;;;;;5047683;28;20573;-75
2024/02/13 02:12:35;;;;;;;4.57;2.80;;;14.40;99.90;;;;;;5037949;28;20394;-76
2024/02/13 02:15:02;;;;;;;6.60;2.40;;;14.40;99.90;;;;;;5048830;28;20546;-75
2024/02/13 02:17:28;;;;;;;4.60;2.47;;;14.30;99.90;;;;;;5041726;28;20067;-76
2024/02/13 02:19:56;;;;;;;4.47;2.38;;;14.30;99.90;;;;;;5048663;28;20032;-75
2024/02/13 02:22:22;;;;;;;7.63;2.75;;;14.30;99.90;;;;;;5046316;28;20033;-78
2024/02/13 02:24:48;;;;;;;5.75;2.40;;;14.30;99.90;;;;;;5041570;28;20036;-78
2024/02/13 02:27:14;;;;;;;4.60;3.00;;;14.30;99.90;;;;;;5039777;28;20029;-76
2024/02/13 02:29:40;;;;;;;3.88;2.30;;;14.30;99.90;;;;;;5040695;28;20049;-77
2024/02/13 02:32:09;;;;;;;3.72;2.47;;;14.30;99.90;;;;;;5048597;28;20055;-79
2024/02/13 02:34:35;;;;;;;4.43;2.60;;;14.30;99.90;;;;;;5041227;28;20037;-80
2024/02/13 02:37:02;;;;;;;6.30;2.70;;;14.30;99.90;;;;;;5048337;28;20479;-78
2024/02/13 02:39:28;;;;;;;3.40;2.03;;;14.30;99.90;;;;;;5044180;28;20036;-79
2024/02/13 02:41:53;;;;;;;5.32;2.20;;;14.30;99.90;;;;;;5042507;28;20493;-77
2024/02/13 02:44:19;;;;;;;3.10;2.30;;;14.30;99.90;;;;;;5044100;28;20028;-77
2024/02/13 02:46:47;;;;;;;6.17;2.47;;;14.30;99.90;;;;;;5049343;28;20040;-79
2024/02/13 02:49:16;;;;;;;3.60;2.28;;;14.30;99.90;;;;;;5045896;28;20028;-80
2024/02/13 02:51:43;;;;;;;6.00;2.55;;;14.30;99.90;;;;;;5040608;28;20025;-78
2024/02/13 02:54:09;;;;;;;5.50;2.55;;;14.30;99.90;;;;;;5045085;28;20029;-79
2024/02/13 02:56:37;;;;;;;4.40;2.70;;;14.20;99.90;;;;;;5049101;28;20082;-80
2024/02/13 02:59:03;;;;;;;4.80;2.28;;;14.20;99.90;;;;;;5047662;28;20445;-78
2024/02/13 03:01:29;;;;;;;4.63;2.58;;;14.20;99.90;;;;;;5038214;28;20463;-78
2024/02/13 03:03:56;;;;;;;7.50;3.40;;;14.20;99.90;;;;;;5038370;28;20104;-78
2024/02/13 03:06:22;;;;;;;6.95;2.88;;;14.20;99.90;;;;;;5044560;28;20071;-80
2024/02/13 03:08:49;;;;;;;7.57;2.83;;;14.20;99.90;;;;;;5046066;28;20052;-76
2024/02/13 03:11:15;;;;;;;4.65;2.42;;;14.20;99.90;;;;;;5047666;28;20529;-76
2024/02/13 03:13:41;;;;;;;4.65;2.10;;;14.20;99.90;;;;;;5039299;28;20474;-76
2024/02/13 03:16:06;;;;;;;3.90;2.47;;;14.20;99.90;;;;;;5046916;28;20025;-77
2024/02/13 03:18:32;;;;;;;5.57;2.80;;;14.20;99.90;;;;;;5044607;28;20026;-78
2024/02/13 03:20:58;;;;;;;4.83;2.30;;;14.20;99.90;;;;;;5047665;28;20193;-76
2024/02/13 03:23:24;;;;;;;4.50;2.20;;;14.20;99.90;;;;;;5048267;28;20036;-76
2024/02/13 03:25:50;;;;;;;3.73;2.37;;;14.20;99.90;;;;;;5040461;28;20061;-77
2024/02/13 03:28:16;;;;;;;3.50;2.30;;;14.10;99.90;;;;;;5047878;28;20060;-76
2024/02/13 03:30:41;;;;;;;5.47;2.78;;;14.10;99.90;;;;;;5050147;28;20024;-76
2024/02/13 03:33:08;;;;;;;4.00;2.30;;;14.10;99.90;;;;;;5042051;28;20502;-77
2024/02/13 03:35:34;;;;;;;5.57;2.53;;;14.10;99.90;;;;;;5051264;28;20108;-77
2024/02/13 03:38:00;;;;;;;4.60;2.40;;;14.10;99.90;;;;;;5040637;28;20132;-76
2024/02/13 03:40:26;;;;;;;3.43;2.00;;;14.10;99.90;;;;;;5044614;28;20598;-78
2024/02/13 03:42:52;;;;;;;3.35;2.25;;;14.10;99.90;;;;;;5048509;28;20025;-77
2024/02/13 03:45:17;;;;;;;3.30;2.47;;;14.10;99.90;;;;;;5050615;28;20048;-76
2024/02/13 03:47:43;;;;;;;4.83;2.70;;;14.10;99.90;;;;;;5041348;28;20040;-77
2024/02/13 03:50:09;;;;;;;3.83;2.63;;;14.10;99.90;;;;;;5049968;28;20471;-79
2024/02/13 03:52:36;;;;;;;3.73;2.03;;;14.10;99.90;;;;;;5048308;28;20029;-77
2024/02/13 03:55:04;;;;;;;4.07;2.67;;;14.10;99.90;;;;;;5047859;28;20025;-77
2024/02/13 03:57:30;;;;;;;6.13;2.53;;;14.00;99.90;;;;;;5053056;28;20040;-78
2024/02/13 03:59:56;;;;;;;4.55;2.38;;;14.10;99.90;;;;;;5040225;28;20030;-76
2024/02/13 04:02:22;;;;;;;5.20;2.57;;;14.00;99.90;;;;;;5036403;28;20092;-76
2024/02/13 04:04:48;;;;;;;4.57;2.10;;;14.00;99.90;;;;;;5043599;28;20120;-79
2024/02/13 04:07:15;;;;;;;3.57;2.40;;;14.00;99.90;;;;;;5047344;28;20475;-78
2024/02/13 04:09:41;;;;;;;4.00;2.55;;;14.00;99.90;;;;;;5046318;28;20021;-79
2024/02/13 04:12:09;;;;;;;3.83;2.10;;;14.00;99.90;;;;;;5051854;28;20030;-80
2024/02/13 04:14:37;;;;;;;3.25;2.08;;;14.00;99.90;;;;;;5046931;28;20483;-77
2024/02/13 04:17:03;;;;;;;4.80;2.42;;;14.00;99.90;;;;;;5048774;28;20029;-75
2024/02/13 04:19:29;;;;;;;4.30;2.83;;;14.00;99.90;;;;;;5050222;28;20128;-80
2024/02/13 04:21:55;;;;;;;4.63;3.03;;;14.00;99.90;;;;;;5047583;28;20064;-77
2024/02/13 04:24:21;;;;;;;4.00;2.45;;;14.00;99.90;;;;;;5051455;28;20400;-78
2024/02/13 04:26:47;;;;;;;3.80;2.03;;;14.00;99.90;;;;;;5049603;28;20021;-77
2024/02/13 04:29:13;;;;;;;3.78;2.40;;;14.00;99.90;;;;;;5040112;28;20064;-77
2024/02/13 04:31:39;;;;;;;4.93;2.90;;;13.90;99.90;;;;;;5048969;28;20033;-75
2024/02/13 04:34:05;;;;;;;4.57;2.60;;;13.90;99.90;;;;;;5045421;28;20032;-81
2024/02/13 04:36:32;;;;;;;5.40;2.40;;;13.90;99.90;;;;;;5040895;28;20029;-77
2024/02/13 04:38:58;;;;;;;3.92;2.50;;;14.00;99.90;;;;;;5049077;28;20651;-78
2024/02/13 04:41:24;;;;;;;5.57;2.67;;;13.90;99.90;;;;;;5047403;28;20032;-78
2024/02/13 04:43:54;;;;;;;5.20;2.57;;;13.90;99.90;;;;;;5049573;28;20131;-75
2024/02/13 04:46:24;;;;;;;5.18;2.22;;;13.90;99.90;;;;;;5044983;28;20033;-75
2024/02/13 04:48:49;;;;;;;3.85;2.40;;;13.90;99.90;;;;;;5048348;28;20029;-75
2024/02/13 04:51:15;;;;;;;3.43;2.43;;;13.90;99.90;;;;;;5046105;28;20039;-78
2024/02/13 04:53:41;;;;;;;5.23;2.67;;;13.90;99.90;;;;;;5050832;28;20028;-76
2024/02/13 04:56:07;;;;;;;3.57;2.53;;;13.80;99.90;;;;;;5044789;28;20394;-76
2024/02/13 04:58:33;;;;;;;5.60;2.70;;;13.80;99.90;;;;;;5051318;28;20025;-77
2024/02/13 05:01:02;;;;;;;5.93;2.70;;;13.80;99.90;;;;;;5052098;28;20029;-75
2024/02/13 05:09:15;;;;;;;3.92;2.22;;;13.90;99.90;;;;;;5050420;28;20044;-78
2024/02/13 05:11:40;;;;;;;3.00;2.28;;;13.80;99.90;;;;;;5044625;28;20052;-77
2024/02/13 05:14:08;;;;;;;4.77;2.43;;;13.80;99.90;;;;;;5039719;28;20482;-76
2024/02/13 05:16:36;;;;;;;2.50;2.03;;;13.80;99.90;;;;;;5045490;28;20036;-78
2024/02/13 05:19:03;;;;;;;3.60;2.58;;;13.80;99.90;;;;;;5050550;28;20378;-80
2024/02/13 05:21:29;;;;;;;4.82;2.17;;;13.80;99.90;;;;;;5040789;28;20029;-78
2024/02/13 05:23:55;;;;;;;2.85;2.33;;;13.80;99.90;;;;;;5038462;28;20030;-77
2024/02/13 05:26:20;;;;;;;3.67;2.10;;;13.80;99.90;;;;;;5044595;28;20044;-77
2024/02/13 05:28:48;;;;;;;6.87;3.27;;;13.80;99.90;;;;;;5042802;28;20060;-78
2024/02/13 05:31:14;;;;;;;5.20;3.13;;;13.70;99.90;;;;;;5050851;28;20027;-76
2024/02/13 05:33:39;;;;;;;4.20;2.60;;;13.70;99.90;;;;;;5038687;28;20029;-78
2024/02/13 05:36:08;;;;;;;3.33;2.23;;;13.70;99.90;;;;;;5045227;28;20024;-78
2024/02/13 05:38:42;;;;;;;7.18;2.78;;;13.70;99.90;;;;;;5049468;28;20471;-78
2024/02/13 05:41:08;;;;;;;3.63;2.47;;;13.70;99.90;;;;;;5045903;28;20460;-78
2024/02/13 05:43:34;;;;;;;4.20;2.47;;;13.70;99.90;;;;;;5048139;28;20116;-79
2024/02/13 05:46:00;;;;;;;3.87;2.27;;;13.70;99.90;;;;;;5045117;28;20037;-79
2024/02/13 05:48:28;;;;;;;2.97;2.00;;;13.70;99.90;;;;;;5050717;28;20100;-77
2024/02/13 05:50:55;;;;;;;5.00;2.33;;;13.70;99.90;;;;;;5049436;28;20433;-76
2024/02/13 05:53:21;;;;;;;5.95;2.45;;;13.70;99.90;;;;;;5053512;28;20036;-77
2024/02/13 05:55:48;;;;;;;7.78;3.13;;;13.70;99.90;;;;;;5048969;28;20028;-80
2024/02/13 05:58:14;;;;;;;5.53;2.40;;;13.70;99.90;;;;;;5050064;28;20032;-79
2024/02/13 06:00:40;;;;;;;12.13;7.67;;;13.70;99.90;;;;;;5051331;28;20059;-80
2024/02/13 06:03:06;;;;;;;49.45;41.85;;;13.70;99.90;;;;;;5040308;28;20067;-78
2024/02/13 06:05:32;;;;;;;12.95;11.27;;;13.70;99.90;;;;;;5048056;28;20133;-77
2024/02/13 06:07:58;;;;;;;19.77;13.33;;;13.70;99.90;;;;;;5050098;28;20107;-79
2024/02/13 06:10:24;;;;;;;19.20;14.90;;;13.70;99.90;;;;;;5047874;28;20048;-76
2024/02/13 06:12:50;;;;;;;20.23;11.63;;;13.70;99.90;;;;;;5049332;28;20057;-81
2024/02/13 06:15:16;;;;;;;16.43;10.37;;;13.70;99.90;;;;;;5044768;28;20126;-78
2024/02/13 06:17:43;;;;;;;15.97;10.90;;;13.70;99.90;;;;;;5041545;28;20032;-78
2024/02/13 06:20:11;;;;;;;;;;;13.70;99.90;;;;;;5048103;28;20025;-78
2024/02/13 06:22:38;;;;;;;274.92;217.95;;;13.80;99.90;;;;;;5035742;28;19912;-77
2024/02/13 06:25:05;;;;;;;105.45;82.57;;;13.70;99.90;;;;;;5049710;28;20119;-78
2024/02/13 06:27:35;;;;;;;151.45;121.35;;;13.70;99.90;;;;;;5050529;28;20033;-76
2024/02/13 06:30:02;;;;;;;152.02;116.30;;;13.80;99.90;;;;;;5049498;28;20025;-76
2024/02/13 06:32:27;;;;;;;;;;;13.80;99.90;;;;;;5049916;28;20102;-77
2024/02/13 06:34:54;;;;;;;131.23;99.57;;;13.80;99.90;;;;;;5049756;28;20358;-77
2024/02/13 06:37:21;;;;;;;106.90;90.65;;;13.70;99.90;;;;;;5049865;28;20441;-77
2024/02/13 06:39:47;;;;;;;102.55;78.97;;;13.70;99.90;;;;;;5049865;28;20497;-77
2024/02/13 06:42:13;;;;;;;96.20;78.53;;;13.80;99.90;;;;;;5050953;28;20382;-77
2024/02/13 06:44:40;;;;;;;73.50;61.63;;;13.80;99.90;;;;;;5049697;28;20031;-76
2024/02/13 06:47:06;;;;;;;89.38;71.15;;;13.70;99.90;;;;;;5048764;28;20033;-76
2024/02/13 06:49:33;;;;;;;83.28;66.38;;;13.80;99.90;;;;;;5049633;28;20025;-79
2024/02/13 06:51:59;;;;;;;74.95;61.38;;;13.80;99.90;;;;;;5050649;28;20091;-77
2024/02/13 06:54:25;;;;;;;91.63;57.30;;;13.80;99.90;;;;;;5049615;28;20025;-77
2024/02/13 06:56:51;;;;;;;74.73;59.73;;;13.80;99.90;;;;;;5041910;28;20057;-77
2024/02/13 06:59:17;;;;;;;73.68;55.55;;;13.80;99.90;;;;;;5050215;28;20040;-80
2024/02/13 07:01:42;;;;;;;65.17;52.27;;;13.80;99.90;;;;;;5052450;28;20033;-77
2024/02/13 07:04:10;;;;;;;65.67;52.03;;;13.80;99.90;;;;;;5054345;28;20021;-76
2024/02/13 07:06:36;;;;;;;66.80;50.17;;;13.70;99.90;;;;;;5052637;28;20051;-76
2024/02/13 07:09:04;;;;;;;55.47;47.10;;;13.80;99.90;;;;;;5052341;28;20029;-75
2024/02/13 07:11:30;;;;;;;53.88;43.60;;;13.80;99.90;;;;;;5051982;28;20078;-78
2024/02/13 07:13:56;;;;;;;51.83;41.43;;;13.80;99.90;;;;;;5052413;28;20437;-77
2024/02/13 07:16:22;;;;;;;53.70;43.20;;;13.80;99.90;;;;;;5052906;28;20033;-79
2024/02/13 07:18:47;;;;;;;44.53;38.43;;;13.80;99.90;;;;;;5053531;28;20536;-76
2024/02/13 07:21:13;;;;;;;51.73;41.53;;;13.80;99.90;;;;;;5054363;28;20083;-80
2024/02/13 07:23:39;;;;;;;48.03;38.73;;;13.80;99.90;;;;;;5057524;28;20596;-77
2024/02/13 07:26:05;;;;;;;45.80;34.37;;;13.80;99.90;;;;;;5053418;28;20036;-78
2024/02/13 07:28:30;;;;;;;44.80;36.70;;;13.80;99.90;;;;;;5051715;28;20052;-78
2024/02/13 07:30:56;;;;;;;50.37;36.03;;;13.80;99.90;;;;;;5053406;28;20425;-77
2024/02/13 07:33:23;;;;;;;42.00;34.17;;;13.90;99.90;;;;;;5053677;28;20044;-77
2024/02/13 07:35:48;;;;;;;;;;;13.90;99.90;;;;;;5054085;28;20078;-77
2024/02/13 07:38:14;;;;;;;45.93;35.20;;;14.00;99.90;;;;;;5052224;28;20330;-76
2024/02/13 07:40:40;;;;;;;41.10;34.70;;;14.00;99.90;;;;;;5052362;28;20025;-77
2024/02/13 07:43:06;;;;;;;41.70;31.43;;;14.00;99.90;;;;;;5051307;28;20045;-78
2024/02/13 07:45:32;;;;;;;39.30;32.53;;;14.00;99.90;;;;;;5053995;28;20562;-76
2024/02/13 07:48:01;;;;;;;38.23;31.03;;;14.00;99.90;;;;;;5052231;28;20032;-76
2024/02/13 07:50:27;;;;;;;37.47;31.50;;;14.10;99.90;;;;;;5051669;28;20355;-77
2024/02/13 07:52:52;;;;;;;36.47;31.13;;;14.20;99.90;;;;;;5051909;28;20029;-78
2024/02/13 07:55:19;;;;;;;35.57;29.70;;;14.50;99.90;;;;;;5051903;28;20033;-77
2024/02/13 07:57:49;;;;;;;;;;;14.70;99.90;;;;;;5047751;28;20433;-78
2024/02/13 08:00:16;;;;;;;32.20;28.70;;;15.00;99.90;;;;;;5051888;28;19916;-77
2024/02/13 08:02:42;;;;;;;32.67;27.73;;;15.40;99.90;;;;;;5053521;28;20061;-77
2024/02/13 08:05:08;;;;;;;36.60;28.00;;;15.60;99.90;;;;;;5050258;28;20073;-80
2024/02/13 08:07:33;;;;;;;34.83;26.73;;;15.80;99.90;;;;;;5050171;28;20021;-77
2024/02/13 08:09:59;;;;;;;32.17;25.93;;;16.00;99.90;;;;;;5051435;28;20508;-76
2024/02/13 08:12:25;;;;;;;29.90;25.90;;;16.10;99.90;;;;;;5053736;28;20032;-79
2024/02/13 08:14:51;;;;;;;26.93;22.67;;;16.20;99.90;;;;;;5051622;28;20068;-78
2024/02/13 08:17:16;;;;;;;30.33;25.13;;;16.30;99.90;;;;;;5051130;28;20087;-78
2024/02/13 08:19:42;;;;;;;32.03;24.70;;;16.30;99.90;;;;;;5052444;28;20039;-78
2024/02/13 08:22:08;;;;;;;34.93;23.73;;;16.40;99.90;;;;;;5051417;28;20029;-79
2024/02/13 08:24:35;;;;;;;27.00;22.63;;;16.20;99.90;;;;;;5053486;28;20025;-77
2024/02/13 08:27:01;;;;;;;26.17;21.98;;;16.10;99.90;;;;;;5050897;28;20063;-77
2024/02/13 08:29:27;;;;;;;27.45;22.45;;;16.10;99.90;;;;;;5051786;28;20041;-76
2024/02/13 08:31:54;;;;;;;24.80;22.03;;;16.10;99.90;;;;;;5047692;28;20424;-78
2024/02/13 08:34:21;;;;;;;22.67;20.25;;;16.30;99.90;;;;;;5053017;28;20028;-78
2024/02/13 08:36:48;;;;;;;28.92;21.08;;;16.40;99.90;;;;;;5052619;28;20032;-77
2024/02/13 08:39:14;;;;;;;25.77;21.65;;;16.60;99.90;;;;;;5051179;28;20115;-78
2024/02/13 08:41:40;;;;;;;25.00;20.50;;;16.60;99.90;;;;;;5052294;28;20147;-78
2024/02/13 08:44:07;;;;;;;23.77;19.95;;;16.60;99.90;;;;;;5050818;28;20040;-80
2024/02/13 08:46:33;;;;;;;21.60;18.08;;;16.80;99.90;;;;;;5050907;28;20122;-78
2024/02/13 08:49:00;;;;;;;21.03;17.87;;;16.90;99.90;;;;;;5050896;28;20060;-77
2024/02/13 08:51:27;;;;;;;20.77;18.35;;;16.90;99.90;;;;;;5050825;28;20073;-78
2024/02/13 08:53:53;;;;;;;20.50;17.73;;;16.90;99.90;;;;;;5050886;28;20029;-77
2024/02/13 08:56:19;;;;;;;19.00;17.03;;;17.00;99.90;;;;;;5050756;28;20033;-77
2024/02/13 08:58:45;;;;;;;20.55;17.25;;;17.10;99.90;;;;;;5051586;28;20087;-78
2024/02/13 09:01:12;;;;;;;20.43;16.97;;;17.00;99.90;;;;;;5050686;28;20466;-78
2024/02/13 09:03:38;;;;;;;19.40;16.63;;;17.00;99.90;;;;;;5050618;28;20025;-76
2024/02/13 09:06:04;;;;;;;18.63;16.10;;;17.00;99.90;;;;;;5051785;28;20040;-78
2024/02/13 09:08:37;;;;;;;19.20;16.08;;;17.00;99.90;;;;;;5052004;28;20032;-78
2024/02/13 09:11:03;;;;;;;17.52;15.68;;;17.00;99.90;;;;;;5046290;28;20033;-79
2024/02/13 09:13:29;;;;;;;19.30;15.38;;;17.10;99.90;;;;;;5050242;28;20044;-77
2024/02/13 09:15:55;;;;;;;17.33;15.00;;;17.00;99.90;;;;;;5050168;28;20497;-78
2024/02/13 09:18:22;;;;;;;15.87;14.17;;;16.90;99.90;;;;;;5052312;28;20029;-78
2024/02/13 09:20:49;;;;;;;18.20;14.43;;;16.80;99.90;;;;;;5048973;28;20477;-78
2024/02/13 09:23:18;;;;;;;17.63;13.73;;;16.70;99.90;;;;;;5051715;28;20068;-78
2024/02/13 09:25:49;;;;;;;15.68;13.50;;;16.80;99.90;;;;;;5050297;28;20394;-77
2024/02/13 09:28:18;;;;;;;16.05;13.23;;;16.70;99.90;;;;;;5050043;28;20356;-78
2024/02/13 09:30:47;;;;;;;14.63;13.05;;;16.70;99.90;;;;;;5051453;28;20025;-78
2024/02/13 09:33:14;;;;;;;16.30;13.52;;;16.80;99.90;;;;;;5051606;28;20459;-77
2024/02/13 09:35:40;;;;;;;16.30;12.95;;;16.90;99.90;;;;;;5051440;28;20112;-77
2024/02/13 09:38:06;;;;;;;14.70;12.13;;;16.90;99.90;;;;;;5051538;28;20112;-77
2024/02/13 09:40:33;;;;;;;13.48;11.93;;;17.00;99.90;;;;;;5049974;28;20044;-76
2024/02/13 09:42:59;;;;;;;16.13;12.60;;;16.90;99.90;;;;;;5050888;28;20028;-75
2024/02/13 09:45:26;;;;;;;16.13;11.87;;;16.90;99.90;;;;;;5048332;28;20032;-77
2024/02/13 09:47:52;;;;;;;14.73;11.88;;;16.90;99.90;;;;;;5051519;28;20021;-77
2024/02/13 09:50:18;;;;;;;12.95;11.35;;;17.00;99.90;;;;;;5049558;28;20035;-76
2024/02/13 09:52:54;;;;;;;13.20;11.20;;;17.00;99.90;;;;;;5046561;28;20060;-78
2024/02/13 09:55:21;;;;;;;12.65;11.02;;;17.00;99.90;;;;;;5046882;28;20033;-77
2024/02/13 09:57:49;;;;;;;13.68;11.10;;;17.10;99.90;;;;;;5050909;28;20467;-77
2024/02/13 10:00:18;;;;;;;13.77;10.88;;;17.10;99.90;;;;;;5046635;28;20020;-77
2024/02/13 10:02:47;;;;;;;14.10;10.25;;;16.90;99.90;;;;;;5049889;28;20425;-78
2024/02/13 10:05:14;;;;;;;13.23;10.18;;;16.70;99.90;;;;;;5045596;28;20048;-76
2024/02/13 10:07:41;;;;;;;11.77;9.23;;;16.70;99.90;;;;;;5049640;28;20021;-76
2024/02/13 10:10:11;;;;;;;10.73;8.90;;;16.60;99.90;;;;;;5049584;28;20045;-77
2024/02/13 10:12:59;;;;;;;11.77;9.10;;;16.70;99.90;;;;;;5050854;28;20760;-77
2024/02/13 10:15:43;;;;;;;10.05;8.75;;;16.80;99.90;;;;;;5048089;28;20025;-76
2024/02/13 10:18:11;;;;;;;11.45;8.68;;;17.00;99.90;;;;;;5039507;28;20043;-74
2024/02/13 10:20:39;;;;;;;10.95;8.68;;;17.00;99.90;;;;;;5049116;28;20036;-77
2024/02/13 10:23:05;;;;;;;10.07;8.50;;;17.00;99.90;;;;;;5050461;28;20020;-78
2024/02/13 10:25:32;;;;;;;9.50;8.38;;;17.00;99.90;;;;;;5050130;28;20021;-75
2024/02/13 10:28:01;;;;;;;11.27;8.82;;;17.00;99.90;;;;;;5044686;28;20165;-79
2024/02/13 10:30:29;;;;;;;12.13;9.02;;;17.10;99.90;;;;;;5048769;28;20029;-79
2024/02/13 10:33:09;;;;;;;9.50;8.32;;;17.10;99.90;;;;;;5049451;28;20056;-76
2024/02/13 10:35:35;;;;;;;10.18;8.32;;;17.20;99.90;;;;;;5048289;28;20033;-79
2024/02/13 10:38:07;;;;;;;10.57;7.60;;;17.40;99.90;;;;;;5049147;28;20128;-81
2024/02/13 10:40:39;;;;;;;11.98;8.20;;;17.50;99.90;;;;;;5049566;28;20448;-80
2024/02/13 10:43:11;;;;;;;9.35;7.72;;;17.60;99.90;;;;;;5049590;28;20047;-77
2024/02/13 10:45:38;;;;;;;9.65;7.80;;;17.70;99.90;;;;;;5049556;28;20036;-78
2024/02/13 10:48:39;;;;;;;9.35;7.18;;;17.70;99.90;;;;;;5050698;28;20111;-77
2024/02/13 10:51:08;;;;;;;8.07;7.28;;;17.40;99.90;;;;;;5045729;28;20128;-77
2024/02/13 10:53:35;;;;;;;7.30;6.60;;;17.20;99.90;;;;;;5049504;28;20116;-78
2024/02/13 10:56:02;;;;;;;;;;;17.20;99.90;;;;;;5049855;28;20025;-79
2024/02/13 10:58:30;;;;;;;8.57;6.47;;;17.30;99.90;;;;;;5049304;28;19909;-77
2024/02/13 11:00:56;;;;;;;9.75;6.82;;;17.20;99.90;;;;;;5049050;28;20061;-76
2024/02/13 11:03:33;;;;;;;9.15;7.18;;;17.10;99.90;;;;;;5050629;28;20032;-79
2024/02/13 11:06:01;;;;;;;9.02;7.22;;;17.00;99.90;;;;;;5036301;28;20072;-78
2024/02/13 11:09:08;;;;;;;;;;;;;;;;;;;;;
2024/02/13 11:11:43;;;;;;;7.60;6.68;;;16.80;99.90;;;;;;5039712;28;20524;-75
2024/02/13 11:14:38;;;;;;;7.93;6.43;;;16.90;99.90;;;;;;5049408;28;20025;-79
2024/02/13 11:17:10;;;;;;;6.97;6.27;;;17.00;99.90;;;;;;5050663;28;20029;-77
2024/02/13 11:19:40;;;;;;;9.05;6.47;;;17.00;99.90;;;;;;5042988;28;20425;-77
2024/02/13 11:22:11;;;;;;;9.55;6.25;;;17.00;99.90;;;;;;5042848;28;20044;-74
2024/02/13 11:24:48;;;;;;;6.70;5.85;;;17.10;99.90;;;;;;5048954;28;20029;-76
2024/02/13 11:27:23;;;;;;;6.78;5.63;;;17.00;99.90;;;;;;5049168;28;20025;-76
2024/02/13 11:29:59;;;;;;;8.70;6.10;;;17.10;99.90;;;;;;5039090;28;20410;-81
2024/02/13 11:32:28;;;;;;;5.90;5.30;;;17.10;99.90;;;;;;5049203;28;20032;-75
2024/02/13 11:34:58;;;;;;;6.80;6.03;;;17.10;99.90;;;;;;5040724;28;20039;-77
2024/02/13 11:37:27;;;;;;;7.15;5.53;;;17.10;99.90;;;;;;5042349;28;20029;-81
2024/02/13 11:39:54;;;;;;;6.70;5.28;;;17.00;99.90;;;;;;5038930;28;20703;-78
2024/02/13 11:42:25;;;;;;;7.97;5.57;;;17.00;99.90;;;;;;5043370;28;20136;-77
2024/02/13 11:44:51;;;;;;;5.85;5.03;;;17.40;99.90;;;;;;5036529;28;20036;-77
2024/02/13 11:47:22;;;;;;;8.13;4.88;;;17.90;99.90;;;;;;5045902;28;20174;-76
2024/02/13 11:49:49;;;;;;;6.80;4.50;;;18.10;99.90;;;;;;5046180;28;20090;-77
2024/02/13 11:52:16;;;;;;;5.30;4.55;;;18.20;99.90;;;;;;5045776;28;20090;-76
2024/02/13 11:54:44;;;;;;;13.77;12.35;;;18.60;99.90;;;;;;5038784;28;20024;-77
2024/02/13 11:57:14;;;;;;;20.27;14.00;;;18.90;99.90;;;;;;5041257;28;20034;-77
2024/02/13 11:59:40;;;;;;;20.30;13.90;;;19.00;99.90;;;;;;5037078;28;20052;-77
2024/02/13 12:02:11;;;;;;;19.00;13.82;;;19.00;99.90;;;;;;5048650;28;20116;-76
2024/02/13 12:04:37;;;;;;;17.70;13.85;;;18.80;99.90;;;;;;5048909;28;20044;-76
2024/02/13 12:07:06;;;;;;;20.98;13.57;;;18.70;99.90;;;;;;5048897;28;20148;-78
2024/02/13 12:09:34;;;;;;;21.42;12.88;;;18.60;99.90;;;;;;5049949;28;20120;-76
2024/02/13 12:12:00;;;;;;;19.27;13.48;;;18.40;99.90;;;;;;5047620;28;20086;-77
2024/02/13 12:14:26;;;;;;;247.40;172.52;;;18.30;99.90;;;;;;5046721;28;20029;-77
2024/02/13 12:16:54;;;;;;;110.03;72.37;;;18.10;99.90;;;;;;5050908;28;20475;-75
2024/02/13 12:19:20;;;;;;;75.53;53.80;;;18.10;99.90;;;;;;5051567;28;20051;-77
2024/02/13 12:21:46;;;;;;;75.55;48.67;;;18.00;99.90;;;;;;5050416;28;20037;-77
2024/02/13 12:24:13;;;;;;;68.05;50.78;;;17.90;99.90;;;;;;5050365;28;20552;-77
2024/02/13 12:26:38;;;;;;;45.20;35.67;;;17.80;99.90;;;;;;5049869;28;20037;-79
2024/02/13 12:29:14;;;;;;;50.90;35.20;;;17.80;99.90;;;;;;5051622;28;20080;-78
2024/02/13 12:31:41;;;;;;;48.35;34.00;;;17.70;99.90;;;;;;5050592;28;20025;-77
2024/02/13 12:34:07;;;;;;;48.42;31.10;;;17.70;99.90;;;;;;5043438;28;20075;-75
2024/02/13 12:36:35;;;;;;;45.30;31.13;;;17.70;99.90;;;;;;5045295;28;20088;-78
2024/02/13 12:39:13;;;;;;;42.80;29.95;;;17.60;99.90;;;;;;5038922;28;20087;-79
2024/02/13 12:41:39;;;;;;;44.17;29.65;;;17.40;99.90;;;;;;5048229;28;20427;-75
2024/02/13 12:44:04;;;;;;;39.67;27.67;;;17.30;99.90;;;;;;5047396;28;20056;-79
2024/02/13 12:46:36;;;;;;;40.97;25.73;;;17.20;99.90;;;;;;5044547;28;20061;-76